»·PEaware :: WAT540 CA97-KLAX

WAT540 :: CA97-KLAX

FLIGHT INFORMATION

Flight Status: Arrived
Operator:
Walker Air Transport
More flights by this operator :: More flights under this callsign
Pilot: Michael R. (33632)
Aircraft: GRUMMAN AERO AA5 CHEETAH TIGER
(AA5)
More flights by this aircraft type
Origin: CA97 Christy Airstrip
United States
Destination: KLAX Los Angeles Intl
United States
More flights between these airports :: More routes between these airports
Route:
File this flight plan on PilotEdge
Remarks:
Altitude:
(Current/Filed)
5,500ft
Speed:
(Current/Filed)
130kts
Departed: 13-Feb-21 03:38 AM
Arrived: 13-Feb-21 04:14 AM
Distance/Time
Traveled:
72nm/0:36
Distance/Time
To Go:
Arrived

Flight Plot

Page will automatically refresh every two minutes.

Flight plan parsing failed; only flown route is shown


Map Options




Map Legend


Flown Route
Filed Route
Departure Airport
Arrival Airport
Navaid (VOR, NDB)
Fix

Horizontal Profiles

Position Reports

Time Latitude Longitude Heading Altitude Ground
Speed
13-Feb-21 02:53 34.019442 -119.853925 254 265ft 0kts
13-Feb-21 02:54 34.019442 -119.853925 254 265ft 0kts
13-Feb-21 02:55 34.019442 -119.853925 254 265ft 0kts
13-Feb-21 02:56 34.019442 -119.853925 254 265ft 0kts
13-Feb-21 02:57 34.019442 -119.853925 254 265ft 0kts
13-Feb-21 02:58 34.019442 -119.853925 254 265ft 0kts
13-Feb-21 02:59 34.019442 -119.853925 254 265ft 0kts
13-Feb-21 03:00 34.019442 -119.853925 254 265ft 0kts
13-Feb-21 03:01 34.019442 -119.853925 254 265ft 0kts
13-Feb-21 03:02 34.019442 -119.853925 254 265ft 0kts
13-Feb-21 03:03 34.019442 -119.853925 254 265ft 0kts
13-Feb-21 03:04 34.019442 -119.853925 254 265ft 0kts
13-Feb-21 03:05 34.019442 -119.853925 254 265ft 0kts
13-Feb-21 03:06 34.019442 -119.853925 254 265ft 0kts
13-Feb-21 03:07 34.019442 -119.853925 254 265ft 0kts
13-Feb-21 03:08 34.019442 -119.853925 254 265ft 0kts
13-Feb-21 03:09 34.019442 -119.853925 254 265ft 0kts
13-Feb-21 03:10 34.019442 -119.853925 254 265ft 0kts
13-Feb-21 03:11 34.019442 -119.853925 254 265ft 0kts
13-Feb-21 03:12 34.019442 -119.853925 254 265ft 0kts
13-Feb-21 03:13 34.019442 -119.853925 254 265ft 0kts
13-Feb-21 03:14 34.019442 -119.853925 254 265ft 0kts
13-Feb-21 03:15 34.019442 -119.853925 254 265ft 0kts
13-Feb-21 03:16 34.019442 -119.853925 254 265ft 0kts
13-Feb-21 03:17 34.019442 -119.853925 254 265ft 0kts
13-Feb-21 03:18 34.019442 -119.853925 254 265ft 0kts
13-Feb-21 03:19 34.019442 -119.853925 254 265ft 0kts
13-Feb-21 03:20 34.019442 -119.853925 254 265ft 0kts
13-Feb-21 03:21 34.019442 -119.853925 254 265ft 0kts
13-Feb-21 03:22 34.019442 -119.853925 254 265ft 0kts
13-Feb-21 03:23 34.019442 -119.853925 254 265ft 0kts
13-Feb-21 03:24 34.019442 -119.853925 254 265ft 0kts
13-Feb-21 03:25 34.019442 -119.853925 254 265ft 0kts
13-Feb-21 03:26 34.019442 -119.853925 254 265ft 0kts
13-Feb-21 03:27 34.019442 -119.853925 254 265ft 0kts
13-Feb-21 03:28 34.019442 -119.853925 254 265ft 0kts
13-Feb-21 03:29 34.019442 -119.853925 254 265ft 0kts
13-Feb-21 03:30 34.019442 -119.853925 254 265ft 0kts
13-Feb-21 03:31 34.019442 -119.853925 254 265ft 0kts
13-Feb-21 03:32 34.019442 -119.853925 254 265ft 0kts
13-Feb-21 03:33 34.019442 -119.853925 254 265ft 0kts
13-Feb-21 03:34 34.019443 -119.853946 283 265ft 2kts
13-Feb-21 03:35 34.020160 -119.849124 82 326ft 8kts
13-Feb-21 03:36 34.020228 -119.848716 259 334ft 0kts
13-Feb-21 03:37 34.019982 -119.861834 275 537ft 84kts
13-Feb-21 03:38 34.034296 -119.873900 52 1482ft 83kts
13-Feb-21 03:39 34.027035 -119.849618 122 2375ft 82kts
13-Feb-21 03:40 34.020274 -119.823675 96 3167ft 87kts
13-Feb-21 03:41 34.018790 -119.791823 91 3873ft 100kts
13-Feb-21 03:42 34.018219 -119.756045 90 4511ft 110kts
13-Feb-21 03:43 34.017712 -119.718340 90 5130ft 114kts
13-Feb-21 03:44 34.017172 -119.678397 90 5494ft 128kts
13-Feb-21 03:45 34.016553 -119.633765 90 5490ft 136kts
13-Feb-21 03:46 34.015893 -119.587848 90 5490ft 137kts
13-Feb-21 03:47 34.015210 -119.541602 90 5490ft 137kts
13-Feb-21 03:48 34.014512 -119.495522 90 5490ft 137kts
13-Feb-21 03:49 34.013795 -119.449351 90 5490ft 137kts
13-Feb-21 03:50 34.013060 -119.403161 90 5490ft 137kts
13-Feb-21 03:51 34.012310 -119.357024 90 5490ft 137kts
13-Feb-21 03:52 34.011543 -119.310879 91 5490ft 137kts
13-Feb-21 03:53 34.010667 -119.264726 91 5490ft 137kts
13-Feb-21 03:54 34.009491 -119.218409 91 5490ft 137kts
13-Feb-21 03:55 34.007895 -119.172300 94 5490ft 137kts
13-Feb-21 03:56 34.005100 -119.126209 94 5490ft 137kts
13-Feb-21 03:57 34.002281 -119.080307 94 5490ft 137kts
13-Feb-21 03:58 33.999428 -119.034172 94 5490ft 137kts
13-Feb-21 03:59 33.996693 -118.988076 93 5490ft 137kts
13-Feb-21 04:00 33.994320 -118.941867 94 5490ft 138kts
13-Feb-21 04:01 33.991473 -118.895856 94 5490ft 138kts
13-Feb-21 04:03 33.988562 -118.849636 94 5490ft 138kts
13-Feb-21 04:04 33.981508 -118.804421 104 5488ft 138kts
13-Feb-21 04:05 33.971544 -118.758694 104 5278ft 148kts
13-Feb-21 04:06 33.960684 -118.709099 104 4802ft 155kts
13-Feb-21 04:07 33.949567 -118.658555 104 4259ft 158kts
13-Feb-21 04:08 33.937943 -118.606109 104 3696ft 163kts
13-Feb-21 04:09 33.926279 -118.553262 102 3218ft 162kts
13-Feb-21 04:10 33.924974 -118.502303 82 1986ft 146kts
13-Feb-21 04:11 33.929706 -118.458617 83 776ft 103kts
13-Feb-21 04:12 33.932488 -118.432151 82 411ft 74kts
13-Feb-21 04:13 33.934478 -118.410455 86 120ft 43kts
13-Feb-21 04:14 33.935212 -118.402270 85 114ft 15kts
13-Feb-21 04:15 33.932958 -118.403399 176 114ft 7kts

Navigation Log

Ident Type
Flight plan parsing failed, navigation log unavailable